Latest Weather Observations for Gosford

IDN60901

Issued at 11:21 pm EDT Friday 23 October 2020 (issued every 10 minutes, with the page automatically refreshed every 10 minutes)

About weather observations | Map of Sydney area stations | Latest observations for Sydney area | Other Formats
Station Details ID: 061425 Name: GOSFORD AWS Lat: -33.44 Lon: 151.36 Height: 7.0 m
Data from the previous 72 hours. | See also: Recent months at Gosford
Date/Time
EDT
Temp
°C
App
Temp
°C
Dew
Point
°C
Rel
Hum
%
Delta-T
°C
Wind Press
QNH
hPa
Press
MSL
hPa
Rain since
9am
mm
Dir  Spd
km/h
Gust
km/h
Spd
kts
Gust
kts
23/11:00pm 19.6 21.3 18.1 91 0.9 E 6 9 3 5 - - 0.0
23/10:30pm 20.1 21.7 18.2 89 1.2 NE 7 15 4 8 - - 0.0
23/10:00pm 20.3 21.6 18.4 89 1.2 NE 9 17 5 9 - - 0.0
23/09:30pm 20.1 21.8 18.4 90 1.1 ENE 7 17 4 9 - - 0.0
23/09:00pm 20.1 21.4 18.4 90 1.1 ENE 9 19 5 10 - - 0.0
23/08:30pm 20.2 21.4 18.3 89 1.2 ENE 9 13 5 7 - - 0.0
23/08:00pm 20.4 21.6 18.2 87 1.4 NE 9 17 5 9 - - 0.0
23/07:30pm 20.6 21.8 18.2 86 1.5 NE 9 19 5 10 - - 0.0
23/07:00pm 20.9 21.3 18.1 84 1.7 NE 13 26 7 14 - - 0.0
23/06:30pm 21.6 22.3 18.0 80 2.2 ENE 11 20 6 11 - - 0.0
23/06:00pm 22.2 22.2 18.0 77 2.6 ENE 15 26 8 14 - - 0.0
23/05:30pm 22.9 22.9 18.2 75 2.9 ENE 15 24 8 13 - - 0.0
23/05:00pm 23.2 23.0 18.5 75 3.0 NE 17 24 9 13 - - 0.0
23/04:30pm 23.4 23.1 18.3 73 3.2 ENE 17 28 9 15 - - 0.0
23/04:00pm 23.5 22.4 17.7 70 3.6 ENE 20 30 11 16 - - 0.0
23/03:30pm 23.8 23.1 17.3 67 4.0 NE 17 28 9 15 - - 0.0
23/03:00pm 24.3 23.9 18.0 68 4.0 ENE 17 26 9 14 - - 0.0
23/02:30pm 23.9 23.5 18.1 70 3.6 E 17 26 9 14 - - 0.0
23/02:00pm 23.9 23.8 17.9 69 3.8 ENE 15 20 8 11 - - 0.0
23/01:30pm 24.2 24.0 18.4 70 3.7 ESE 17 26 9 14 - - 0.0
23/01:00pm 24.1 23.8 18.3 70 3.7 E 17 24 9 13 - - 0.0
23/12:30pm 24.9 26.2 18.4 67 4.1 ENE 9 19 5 10 - - 0.0
23/12:00pm 25.4 26.4 18.6 66 4.3 E 11 19 6 10 - - 0.0
23/11:30am 24.7 25.3 17.7 65 4.4 E 11 19 6 10 - - 0.0
23/11:00am 24.3 25.7 17.3 65 4.3 NNW 6 11 3 6 - - 0.0
23/10:30am 23.6 25.0 17.3 67 3.9 N 6 11 3 6 - - 0.0
23/10:00am 22.9 24.3 17.4 71 3.4 NNW 6 13 3 7 - - 0.0
23/09:30am 22.2 23.2 16.9 72 3.2 NNE 7 11 4 6 - - 0.0
23/09:00am 21.1 22.5 17.3 79 2.3 ENE 6 9 3 5 - - 0.0
23/08:30am 20.5 23.4 18.3 87 1.4 CALM 0 4 0 2 - - 0.0
23/08:00am 18.9 20.4 17.7 93 0.7 E 6 9 3 5 - - 0.0
23/07:30am 18.2 20.1 17.7 97 0.3 ENE 4 6 2 3 - - 0.0
23/07:00am 17.6 20.2 17.6 100 0.0 CALM 0 2 0 1 - - 0.0
23/06:30am 17.0 19.4 17.0 100 0.0 CALM 0 0 0 0 - - 0.0
23/06:00am 16.3 18.4 16.3 100 0.0 CALM 0 0 0 0 - - 0.0
23/05:30am 16.6 18.8 16.6 100 0.0 CALM 0 0 0 0 - - 0.0
23/05:00am 16.6 18.5 16.6 100 0.0 N 2 4 1 2 - - 0.0
23/04:30am 16.7 19.0 16.7 100 0.0 CALM 0 0 0 0 - - 0.0
23/04:00am 16.4 18.5 16.2 99 0.1 CALM 0 0 0 0 - - 0.0
23/03:30am 16.3 18.3 16.0 98 0.2 CALM 0 0 0 0 - - 0.0
23/03:00am 16.6 18.7 16.3 98 0.2 CALM 0 0 0 0 - - 0.0
23/02:30am 16.9 18.7 16.4 97 0.3 N 2 2 1 1 - - 0.0
23/02:00am 17.4 18.9 16.6 95 0.5 N 4 6 2 3 - - 0.0
23/01:30am 18.2 20.6 17.0 93 0.7 CALM 0 0 0 0 - - 0.0
23/01:00am 18.6 20.4 17.3 92 0.8 NNE 4 11 2 6 - - 0.0
23/12:30am 18.8 20.1 17.5 92 0.8 NE 7 15 4 8 - - 0.0
23/12:00am 18.8 20.2 17.3 91 0.9 NNE 6 11 3 6 - - 0.0
 
Date/Time
EDT
Temp
°C
App
Temp
°C
Dew
Point
°C
Rel
Hum
%
Delta-T
°C
Wind Press
QNH
hPa
Press
MSL
hPa
Rain since
9am
mm
Dir  Spd
km/h
Gust
km/h
Spd
kts
Gust
kts
22/11:30pm 18.8 20.9 17.3 91 0.9 N 2 7 1 4 - - 0.0
22/11:00pm 18.9 20.4 17.6 92 0.8 ENE 6 9 3 5 - - 0.0
22/10:30pm 18.9 20.1 17.4 91 0.9 ENE 7 13 4 7 - - 0.0
22/10:00pm 19.1 20.9 17.4 90 1.0 ENE 4 7 2 4 - - 0.0
22/09:30pm 19.3 20.6 17.6 90 1.0 ENE 7 11 4 6 - - 0.0
22/09:00pm 19.4 20.3 17.5 89 1.2 ENE 9 17 5 9 - - 0.0
22/08:30pm 19.6 20.5 17.6 88 1.2 NE 9 19 5 10 - - 0.0
22/08:00pm 19.7 19.5 17.5 87 1.3 NE 15 24 8 13 - - 0.0
22/07:30pm 19.9 20.1 17.7 87 1.4 ENE 13 20 7 11 - - 0.0
22/07:00pm 20.2 20.8 17.6 85 1.6 NE 11 22 6 12 - - 0.0
22/06:30pm 20.7 20.9 17.7 83 1.8 NE 13 20 7 11 - - 0.0
22/06:00pm 21.1 20.6 17.9 82 2.0 NE 17 28 9 15 - - 0.0
22/05:30pm 21.2 20.5 17.4 79 2.3 ENE 17 30 9 16 - - 0.0
22/05:00pm 22.6 21.4 17.1 71 3.4 ENE 19 28 10 15 - - 0.0
22/04:30pm 22.4 20.5 15.7 66 4.0 NE 20 28 11 15 - - 0.0
22/04:00pm 23.3 22.2 15.4 61 4.7 ENE 15 24 8 13 - - 0.0
22/03:30pm 22.9 22.3 15.7 64 4.3 E 13 19 7 10 - - 0.0
22/03:00pm 22.3 21.6 15.4 65 4.1 E 13 19 7 10 - - 0.0
22/02:30pm 22.1 21.7 16.1 69 3.6 E 13 20 7 11 - - 0.0
22/02:00pm 22.6 22.3 16.4 68 3.8 ENE 13 17 7 9 - - 0.0
22/01:30pm 23.3 24.2 17.5 70 3.6 E 9 19 5 10 - - 0.0
22/01:00pm 23.2 23.8 16.7 67 4.0 ESE 9 13 5 7 - - 0.0
22/12:30pm 23.8 25.3 17.5 68 3.9 SSE 6 9 3 5 - - 0.0
22/12:00pm 23.7 24.8 17.0 66 4.1 SE 7 13 4 7 - - 0.0
22/11:30am 23.2 25.1 15.8 63 4.5 CALM 0 2 0 1 - - 0.0
22/11:00am 22.1 23.5 15.5 66 3.9 ENE 2 6 1 3 - - 0.0
22/10:30am 20.4 20.9 15.6 74 2.9 SSW 7 9 4 5 - - 0.0
22/10:00am 20.0 21.4 15.4 75 2.7 SW 2 7 1 4 - - 0.0
22/09:30am 19.7 21.2 15.6 77 2.4 S 2 6 1 3 - - 0.0
22/09:00am 18.5 20.4 15.7 84 1.7 CALM 0 0 0 0 - - 0.0
22/08:30am 17.9 19.9 16.1 89 1.1 CALM 0 2 0 1 - - 0.0
22/08:00am 16.5 18.5 15.9 96 0.4 CALM 0 0 0 0 - - 0.0
22/07:30am 15.2 16.4 15.0 99 0.1 WSW 2 6 1 3 - - 0.0
22/07:00am 14.2 15.5 14.2 100 0.0 CALM 0 0 0 0 - - 0.0
22/06:30am 13.1 14.0 12.9 99 0.1 CALM 0 0 0 0 - - 0.0
22/06:00am 12.8 13.6 12.5 98 0.2 CALM 0 0 0 0 - - 0.0
22/05:30am 13.1 14.0 12.8 98 0.2 CALM 0 0 0 0 - - 0.0
22/05:00am 13.2 14.1 12.9 98 0.2 CALM 0 0 0 0 - - 0.0
22/04:30am 13.4 14.3 12.9 97 0.3 CALM 0 0 0 0 - - 0.0
22/04:00am 13.3 14.1 12.7 96 0.3 CALM 0 0 0 0 - - 0.0
22/03:30am 13.7 14.7 13.1 96 0.3 CALM 0 0 0 0 - - 0.0
22/03:00am 14.2 15.3 13.4 95 0.4 CALM 0 2 0 1 - - 0.0
22/02:30am 14.5 15.7 13.7 95 0.4 CALM 0 0 0 0 - - 0.0
22/02:00am 14.6 15.7 13.5 93 0.6 CALM 0 0 0 0 - - 0.0
22/01:30am 14.8 15.9 13.5 92 0.7 CALM 0 2 0 1 - - 0.0
22/01:00am 15.4 16.6 13.8 90 0.9 CALM 0 0 0 0 - - 0.0
22/12:30am 16.1 17.3 13.9 87 1.2 CALM 0 0 0 0 - - 0.0
22/12:00am 16.4 16.8 13.7 84 1.5 NNE 4 6 2 3 - - 0.0
 
Date/Time
EDT
Temp
°C
App
Temp
°C
Dew
Point
°C
Rel
Hum
%
Delta-T
°C
Wind Press
QNH
hPa
Press
MSL
hPa
Rain since
9am
mm
Dir  Spd
km/h
Gust
km/h
Spd
kts
Gust
kts
21/11:30pm 17.2 17.4 14.3 83 1.7 NE 6 7 3 4 - - 0.0
21/11:00pm 17.4 17.6 14.3 82 1.8 NE 6 7 3 4 - - 0.0
21/10:30pm 17.6 17.6 14.3 81 1.9 NE 7 9 4 5 - - 0.0
21/10:00pm 17.8 17.6 14.7 82 1.8 NE 9 13 5 7 - - 0.0
21/09:30pm 17.6 17.8 14.7 83 1.7 NE 7 13 4 7 - - 0.0
21/09:00pm 17.7 17.8 14.4 81 1.9 NE 7 11 4 6 - - 0.0
21/08:30pm 18.0 18.0 14.3 79 2.1 NE 7 15 4 8 - - 0.0
21/08:00pm 17.9 18.0 14.4 80 2.0 NNE 7 15 4 8 - - 0.0
21/07:30pm 18.2 17.0 14.1 77 2.3 NE 13 20 7 11 - - 0.0
21/07:00pm 18.4 17.7 14.3 77 2.4 NE 11 19 6 10 - - 0.0
21/06:30pm 18.8 17.3 14.3 75 2.6 NE 15 28 8 15 - - 0.0
21/06:00pm 19.8 18.7 14.4 71 3.1 NE 13 22 7 12 - - 0.0
21/05:30pm 19.9 17.1 14.3 70 3.2 ENE 22 32 12 17 - - 0.0
21/05:00pm 20.3 17.9 14.4 69 3.4 ENE 20 33 11 18 - - 0.0
21/04:30pm 20.8 19.1 14.7 68 3.6 NE 17 28 9 15 - - 0.0
21/04:00pm 21.0 18.7 14.6 67 3.7 ENE 20 33 11 18 - - 0.0
21/03:30pm 21.0 18.6 14.4 66 3.9 ENE 20 32 11 17 - - 0.0
21/03:00pm 21.4 19.2 14.8 66 3.9 ENE 20 32 11 17 - - 0.0
21/02:30pm 21.4 19.7 14.8 66 3.9 ENE 17 28 9 15 - - 0.0
21/02:00pm 21.5 19.8 14.6 65 4.0 ENE 17 28 9 15 - - 0.0
21/01:30pm 21.9 20.5 15.5 67 3.8 ENE 17 24 9 13 - - 0.0
21/01:00pm 21.5 19.6 15.1 67 3.8 E 19 26 10 14 - - 0.0
21/12:30pm 21.4 19.7 14.8 66 3.9 NE 17 26 9 14 - - 0.0
21/12:00pm 21.6 20.0 15.0 66 3.9 ENE 17 32 9 17 - - 0.0
21/11:30am 21.4 20.0 14.6 65 4.0 NE 15 22 8 12 - - 0.0
21/11:00am 20.9 19.0 14.3 66 3.8 ENE 17 28 9 15 - - 0.0
21/10:30am 20.8 18.5 14.2 66 3.8 ENE 19 32 10 17 - - 0.0
21/10:00am 20.8 19.8 14.5 67 3.7 NE 13 26 7 14 - - 0.0
21/09:30am 19.6 19.4 14.6 73 2.9 NNE 9 15 5 8 - - 0.0
21/09:00am 18.7 18.7 14.2 75 2.6 NNE 7 20 4 11 - - 1.2
21/08:30am 18.0 18.3 14.9 82 1.8 N 7 15 4 8 - - 1.2
21/08:00am 16.5 18.4 15.7 95 0.5 CALM 0 2 0 1 - - 1.2
21/07:30am 14.9 16.5 14.9 100 0.0 CALM 0 0 0 0 - - 1.2
21/07:00am 13.0 13.9 13.0 100 0.0 CALM 0 0 0 0 - - 1.2
21/06:30am 12.0 12.6 11.8 99 0.1 CALM 0 0 0 0 - - 1.2
21/06:00am 11.9 12.4 11.7 99 0.1 CALM 0 0 0 0 - - 1.2
21/05:30am 12.1 12.7 11.9 99 0.1 CALM 0 0 0 0 - - 1.2
21/05:00am 12.3 13.0 12.1 99 0.1 CALM 0 0 0 0 - - 1.2
21/04:30am 12.3 12.9 12.0 98 0.2 CALM 0 0 0 0 - - 1.2
21/04:00am 12.5 13.2 12.2 98 0.2 CALM 0 0 0 0 - - 1.2
21/03:30am 12.5 13.2 12.2 98 0.2 CALM 0 0 0 0 - - 1.2
21/03:00am 12.9 13.7 12.6 98 0.2 CALM 0 0 0 0 - - 1.2
21/02:30am 13.4 14.4 13.1 98 0.2 CALM 0 4 0 2 - - 1.2
21/02:00am 13.1 13.9 12.5 96 0.3 CALM 0 0 0 0 - - 1.2
21/01:30am 13.5 14.1 13.0 97 0.3 N 2 7 1 4 - - 1.2
21/01:00am 13.8 14.1 13.5 98 0.2 NNE 4 9 2 5 - - 1.2
21/12:30am 13.2 13.4 12.9 98 0.2 NNE 4 6 2 3 - - 1.2
21/12:00am 13.5 14.4 13.0 97 0.3 CALM 0 0 0 0 - - 1.2
 
Date/Time
EDT
Temp
°C
App
Temp
°C
Dew
Point
°C
Rel
Hum
%
Delta-T
°C
Wind Press
QNH
hPa
Press
MSL
hPa
Rain since
9am
mm
Dir  Spd
km/h
Gust
km/h
Spd
kts
Gust
kts
20/11:30pm 13.7 14.7 13.2 97 0.3 CALM 0 0 0 0 - - 1.2

Latest Capital City Observations: Canberra | Sydney | Melbourne | Brisbane | Adelaide | Perth | Hobart | Darwin

Other formats

Comma delimited format used in spreadsheet applications
http://www.bom.gov.au/fwo/IDN60901/IDN60901.94782.axf

JavaScript Object Notation format (JSON) in row-major order
http://www.bom.gov.au/fwo/IDN60901/IDN60901.94782.json

Data quality

Most of these data are generated automatically and are frequently updated. Quality checks on data are not normally performed. It is possible for incorrect values to appear. Refer to information at About Latest Weather Observations and please check the disclaimer before using these data.